createdAt,value
2019-01-19T00:00:42.709Z,79.88
2019-01-19T00:03:35.298Z,79.92
2019-01-19T00:06:36.178Z,79.92
2019-01-19T00:09:25.426Z,79.75
2019-01-19T00:12:20.363Z,79.71
2019-01-19T00:14:50.510Z,79.83
2019-01-19T00:17:36.643Z,79.86
2019-01-19T00:20:31.376Z,80.02
2019-01-19T00:23:26.782Z,80.13
2019-01-19T00:26:29.525Z,80.13
2019-01-19T00:29:15.730Z,80.05
2019-01-19T00:32:11.033Z,80.00
2019-01-19T00:35:09.128Z,79.96
2019-01-19T00:37:43.401Z,79.87
2019-01-19T00:40:41.318Z,79.98
2019-01-19T00:43:11.387Z,80.15
2019-01-19T00:46:12.859Z,80.12
2019-01-19T00:48:55.651Z,80.23
2019-01-19T00:51:56.859Z,80.36
2019-01-19T00:54:31.139Z,80.48
2019-01-19T00:57:11.115Z,80.63
2019-01-19T00:59:41.203Z,80.88
2019-01-19T01:02:41.277Z,81.06
2019-01-19T01:05:25.466Z,81.07
2019-01-19T01:08:24.891Z,80.94
2019-01-19T01:11:05.055Z,80.76
2019-01-19T01:13:48.242Z,80.63
2019-01-19T01:16:25.474Z,80.62
2019-01-19T01:19:20.139Z,80.55
2019-01-19T01:22:15.127Z,80.41
2019-01-19T01:25:07.608Z,80.27
2019-01-19T01:27:42.242Z,80.11
2019-01-19T01:30:28.876Z,80.06
2019-01-19T01:33:15.006Z,80.00
2019-01-19T01:36:13.436Z,79.90
2019-01-19T01:39:10.010Z,79.87
2019-01-19T01:41:50.128Z,79.68
2019-01-19T01:44:43.910Z,79.57
2019-01-19T01:48:08.099Z,79.52
2019-01-19T01:51:05.683Z,79.49
2019-01-19T01:53:45.876Z,79.40
2019-01-19T01:56:15.442Z,79.38
2019-01-19T01:59:04.837Z,79.27
2019-01-19T02:01:47.194Z,79.19
2019-01-19T02:04:36.820Z,79.11
2019-01-19T02:07:29.045Z,79.12
2019-01-19T02:10:25.938Z,79.08
2019-01-19T02:13:23.983Z,79.06
2019-01-19T02:16:16.611Z,78.78
2019-01-19T02:19:08.520Z,78.64
2019-01-19T02:21:57.808Z,78.64
2019-01-19T02:25:02.373Z,78.73
2019-01-19T02:27:54.483Z,78.90
2019-01-19T02:31:00.551Z,78.98
2019-01-19T02:33:40.421Z,79.01
2019-01-19T02:36:28.859Z,78.93
2019-01-19T02:39:14.891Z,79.00
2019-01-19T02:42:07.370Z,79.05
2019-01-19T02:44:44.451Z,79.14
2019-01-19T02:47:48.613Z,79.33
2019-01-19T02:50:25.603Z,79.49
2019-01-19T02:53:08.560Z,79.70
2019-01-19T02:55:48.889Z,79.93
2019-01-19T02:58:26.076Z,80.06
2019-01-19T03:01:30.293Z,80.06
2019-01-19T03:04:10.306Z,80.02
2019-01-19T03:07:24.144Z,79.89
2019-01-19T03:10:13.586Z,79.98
2019-01-19T03:13:05.655Z,79.93
2019-01-19T03:15:55.133Z,80.05
2019-01-19T03:18:56.503Z,80.29
2019-01-19T03:21:53.316Z,80.47
2019-01-19T03:24:43.775Z,80.67
2019-01-19T03:27:34.461Z,81.02
2019-01-19T03:30:23.315Z,81.43
2019-01-19T03:33:11.764Z,81.57
2019-01-19T03:35:48.482Z,81.68
2019-01-19T03:38:44.330Z,81.77
2019-01-19T03:41:40.223Z,81.93
2019-01-19T03:44:25.871Z,82.17
2019-01-19T03:47:16.550Z,82.46
2019-01-19T03:50:30.581Z,82.75
2019-01-19T03:53:29.057Z,82.94
2019-01-19T03:56:15.090Z,82.73
2019-01-19T03:58:55.141Z,82.38
2019-01-19T04:01:34.546Z,82.09
2019-01-19T04:04:30.009Z,81.95
2019-01-19T04:07:22.327Z,81.91
2019-01-19T04:10:20.508Z,81.74
2019-01-19T04:13:18.371Z,81.56
2019-01-19T04:16:01.334Z,81.36
2019-01-19T04:18:35.565Z,81.17
2019-01-19T04:21:24.398Z,81.12
2019-01-19T04:23:59.294Z,81.06
2019-01-19T04:26:33.308Z,80.92
2019-01-19T04:29:02.818Z,80.84
2019-01-19T04:31:32.459Z,80.89
2019-01-19T04:34:02.537Z,81.01
2019-01-19T04:36:32.202Z,81.03
2019-01-19T04:39:03.381Z,81.07
2019-01-19T04:41:32.875Z,81.17
2019-01-19T04:44:02.391Z,81.33
2019-01-19T04:46:31.895Z,81.47
2019-01-19T04:49:01.710Z,81.51
2019-01-19T04:51:31.214Z,81.39
2019-01-19T04:54:00.718Z,81.23
2019-01-19T04:56:30.237Z,81.07
2019-01-19T04:58:59.735Z,80.95
2019-01-19T05:01:29.400Z,80.88
2019-01-19T05:03:58.906Z,80.85
2019-01-19T05:06:30.630Z,80.78
2019-01-19T05:08:59.975Z,80.86
2019-01-19T05:11:29.482Z,80.91
2019-01-19T05:13:59.018Z,81.05
2019-01-19T05:16:28.565Z,81.25
2019-01-19T05:18:58.021Z,81.54
2019-01-19T05:21:27.927Z,81.92
2019-01-19T05:23:57.521Z,82.26
2019-01-19T05:26:27.032Z,82.64
2019-01-19T05:28:56.551Z,83.04
2019-01-19T05:31:26.159Z,83.50
2019-01-19T05:33:55.677Z,83.90
2019-01-19T05:36:25.190Z,84.26
2019-01-19T05:38:54.708Z,84.59
2019-01-19T05:41:24.219Z,84.97
2019-01-19T05:43:53.755Z,85.29
2019-01-19T05:46:23.275Z,85.65
2019-01-19T05:48:52.807Z,86.00
2019-01-19T05:51:22.322Z,86.33
2019-01-19T05:53:51.840Z,86.62
2019-01-19T05:56:21.370Z,86.86
2019-01-19T05:58:50.890Z,87.03
2019-01-19T06:01:21.198Z,87.23
2019-01-19T06:03:50.723Z,87.46
2019-01-19T06:06:20.624Z,87.67
2019-01-19T06:08:50.145Z,87.88
2019-01-19T06:11:19.714Z,88.10
2019-01-19T06:13:49.183Z,88.27
2019-01-19T06:16:18.712Z,88.42
2019-01-19T06:18:48.916Z,88.56
2019-01-19T06:21:19.599Z,88.53
2019-01-19T06:23:49.147Z,88.38
2019-01-19T06:26:18.640Z,88.22
2019-01-19T06:28:48.157Z,88.08
2019-01-19T06:31:17.692Z,87.95
2019-01-19T06:33:47.202Z,87.90
2019-01-19T06:36:16.736Z,87.78
2019-01-19T06:38:46.270Z,87.70
2019-01-19T06:41:16.201Z,87.70
2019-01-19T06:43:45.706Z,87.68
2019-01-19T06:46:15.230Z,87.67
2019-01-19T06:48:44.769Z,87.63
2019-01-19T06:51:14.275Z,87.64
2019-01-19T06:53:43.871Z,87.59
2019-01-19T06:56:13.381Z,87.45
2019-01-19T06:58:42.909Z,87.26
2019-01-19T07:01:14.080Z,87.18
2019-01-19T07:03:43.612Z,87.31
2019-01-19T07:06:13.128Z,87.47
2019-01-19T07:08:42.641Z,87.59
2019-01-19T07:11:12.169Z,87.75
2019-01-19T07:13:41.692Z,87.96
2019-01-19T07:16:11.297Z,88.23
2019-01-19T07:18:40.816Z,88.55
2019-01-19T07:21:10.440Z,88.84
2019-01-19T07:23:39.962Z,89.10
2019-01-19T07:26:09.474Z,89.36
2019-01-19T07:28:39.580Z,89.59
2019-01-19T07:31:09.108Z,89.75
2019-01-19T07:33:38.610Z,89.87
2019-01-19T07:36:08.156Z,89.91
2019-01-19T07:38:37.681Z,89.99
2019-01-19T07:41:07.202Z,90.07
2019-01-19T07:43:36.808Z,90.05
2019-01-19T07:46:08.123Z,89.93
2019-01-19T07:48:37.644Z,89.91
2019-01-19T07:51:07.179Z,89.80
2019-01-19T07:53:36.688Z,89.49
2019-01-19T07:56:06.364Z,89.16
2019-01-19T07:58:35.898Z,88.89
2019-01-19T08:01:05.574Z,88.65
2019-01-19T08:03:35.363Z,88.56
2019-01-19T08:06:04.886Z,88.48
2019-01-19T08:08:34.410Z,88.48
2019-01-19T08:11:03.976Z,88.51
2019-01-19T08:13:33.495Z,88.49
2019-01-19T08:16:03.148Z,88.39
2019-01-19T08:18:32.654Z,88.11
2019-01-19T08:21:02.160Z,87.77
2019-01-19T08:23:31.691Z,87.38
2019-01-19T08:26:01.203Z,87.03
2019-01-19T08:28:31.077Z,86.44
2019-01-19T08:31:00.591Z,85.64
2019-01-19T08:33:30.097Z,84.81
2019-01-19T08:35:59.927Z,83.95
2019-01-19T08:38:29.493Z,83.03
2019-01-19T08:40:59.025Z,82.21
2019-01-19T08:43:30.182Z,81.26
2019-01-19T08:45:59.699Z,80.00
2019-01-19T08:48:29.536Z,78.57
2019-01-19T08:50:59.033Z,77.09
2019-01-19T08:53:28.565Z,75.49
2019-01-19T08:55:58.099Z,73.96
2019-01-19T08:58:27.715Z,72.50
2019-01-19T09:00:57.235Z,71.01
2019-01-19T09:03:26.747Z,69.42
2019-01-19T09:05:56.541Z,67.71
2019-01-19T09:08:26.062Z,65.88
2019-01-19T09:10:55.579Z,64.14
2019-01-19T09:13:25.187Z,62.31
2019-01-19T09:15:56.419Z,60.65
2019-01-19T09:18:25.956Z,59.46
2019-01-19T09:20:55.478Z,58.46
2019-01-19T09:23:26.648Z,57.49
2019-01-19T09:25:56.180Z,57.04
2019-01-19T09:28:25.708Z,56.46
2019-01-19T09:30:55.321Z,55.82
2019-01-19T09:33:24.832Z,54.87
2019-01-19T09:35:54.395Z,54.19
2019-01-19T09:38:23.899Z,53.78
2019-01-19T09:40:53.418Z,53.65
2019-01-19T09:43:22.951Z,53.19
2019-01-19T09:45:52.467Z,52.93
2019-01-19T09:48:22.079Z,52.48
2019-01-19T09:50:51.664Z,52.18
2019-01-19T09:53:21.202Z,51.86
2019-01-19T09:55:50.745Z,51.66
2019-01-19T09:58:20.265Z,51.42
2019-01-19T10:00:49.795Z,51.36
2019-01-19T10:03:19.321Z,51.43
2019-01-19T10:05:48.931Z,51.51
2019-01-19T10:08:18.483Z,51.51
2019-01-19T10:10:48.290Z,51.90
2019-01-19T10:13:17.876Z,52.28
2019-01-19T10:15:47.423Z,52.69
2019-01-19T10:18:17.539Z,52.69
2019-01-19T10:20:47.064Z,52.77
2019-01-19T10:23:16.611Z,52.76
2019-01-19T10:25:46.125Z,52.85
2019-01-19T10:28:15.664Z,52.94
2019-01-19T10:30:45.421Z,53.19
2019-01-19T10:33:14.941Z,53.60
2019-01-19T10:35:44.466Z,53.74
2019-01-19T10:38:13.985Z,53.77
2019-01-19T10:40:43.517Z,53.80
2019-01-19T10:43:13.029Z,54.10
2019-01-19T10:45:42.534Z,54.29
2019-01-19T10:48:12.065Z,54.46
2019-01-19T10:50:41.578Z,54.88
2019-01-19T10:53:11.100Z,55.34
2019-01-19T10:55:40.684Z,55.67
2019-01-19T10:58:10.620Z,55.87
2019-01-19T11:00:40.130Z,56.03
2019-01-19T11:03:09.711Z,56.32
2019-01-19T11:05:39.265Z,56.73
2019-01-19T11:08:10.687Z,57.18
2019-01-19T11:10:40.450Z,57.61
2019-01-19T11:13:09.963Z,57.96
2019-01-19T11:15:39.728Z,58.39
2019-01-19T11:18:09.237Z,58.97
2019-01-19T11:20:38.749Z,59.62
2019-01-19T11:23:08.287Z,60.16
2019-01-19T11:25:37.791Z,60.55
2019-01-19T11:28:07.468Z,60.72
2019-01-19T11:30:37.021Z,60.99
2019-01-19T11:33:06.602Z,61.38
2019-01-19T11:35:36.111Z,61.88
2019-01-19T11:38:11.804Z,62.24
2019-01-19T11:40:38.385Z,62.61
2019-01-19T11:43:09.141Z,63.05
2019-01-19T11:45:38.735Z,63.39
2019-01-19T11:48:08.319Z,63.73
2019-01-19T11:50:37.852Z,64.20
2019-01-19T11:53:07.366Z,64.61
2019-01-19T11:55:36.956Z,64.97
2019-01-19T11:58:06.725Z,65.21
2019-01-19T12:00:39.039Z,65.42
2019-01-19T12:03:09.099Z,65.60
2019-01-19T12:05:39.781Z,65.72
2019-01-19T12:08:10.107Z,65.97
2019-01-19T12:10:39.625Z,66.17
2019-01-19T12:13:09.220Z,66.29
2019-01-19T12:15:38.806Z,66.46
2019-01-19T12:18:08.592Z,66.60
2019-01-19T12:20:43.545Z,66.76
2019-01-19T12:23:13.063Z,66.91
2019-01-19T12:25:42.824Z,67.00
2019-01-19T12:28:12.347Z,67.12
2019-01-19T12:30:42.003Z,67.41
2019-01-19T12:33:11.587Z,67.68
2019-01-19T12:35:41.118Z,67.83
2019-01-19T12:38:10.630Z,67.92
2019-01-19T12:40:40.214Z,67.93
2019-01-19T12:43:14.321Z,67.97
2019-01-19T12:45:52.897Z,68.08
2019-01-19T12:48:22.926Z,68.11
2019-01-19T12:50:52.493Z,68.12
2019-01-19T12:53:22.689Z,68.18
2019-01-19T12:55:52.213Z,68.17
2019-01-19T12:58:21.799Z,68.11
2019-01-19T13:00:51.326Z,68.11
2019-01-19T13:03:20.835Z,68.17
2019-01-19T13:06:16.106Z,68.30
2019-01-19T13:08:45.856Z,68.43
2019-01-19T13:11:29.006Z,68.44
2019-01-19T13:14:03.259Z,68.50
2019-01-19T13:16:58.189Z,68.56
2019-01-19T13:19:41.436Z,68.60
2019-01-19T13:22:24.457Z,68.53
2019-01-19T13:25:13.717Z,68.33
2019-01-19T13:28:07.363Z,68.28
2019-01-19T13:31:08.109Z,68.28
2019-01-19T13:34:17.443Z,68.49
2019-01-19T13:36:51.657Z,68.70
2019-01-19T13:39:40.022Z,68.85
2019-01-19T13:42:25.547Z,68.97
2019-01-19T13:45:11.270Z,69.08
2019-01-19T13:48:11.999Z,69.12
2019-01-19T13:50:54.525Z,69.20
2019-01-19T13:53:55.286Z,69.24
2019-01-19T13:56:40.810Z,69.32
2019-01-19T13:59:31.551Z,69.42
2019-01-19T14:02:36.299Z,69.54
2019-01-19T14:05:41.050Z,69.53
2019-01-19T14:08:37.645Z,69.64
2019-01-19T14:11:14.618Z,69.75
2019-01-19T14:14:40.584Z,69.87
2019-01-19T14:17:29.026Z,70.04
2019-01-19T14:20:11.767Z,69.97
2019-01-19T14:23:03.188Z,70.16
2019-01-19T14:25:49.434Z,70.31
2019-01-19T14:28:35.589Z,70.49
2019-01-19T14:31:49.486Z,70.74
2019-01-19T14:34:23.721Z,71.05
2019-01-19T14:37:17.350Z,71.15
2019-01-19T14:40:03.307Z,71.41
2019-01-19T14:42:52.402Z,71.63
2019-01-19T14:45:50.690Z,71.88
2019-01-19T14:48:30.541Z,72.13
2019-01-19T14:51:28.941Z,72.36
2019-01-19T14:54:21.537Z,72.64
2019-01-19T14:57:19.351Z,72.92
2019-01-19T15:00:18.958Z,73.17
2019-01-19T15:02:58.745Z,73.43
2019-01-19T15:05:38.434Z,73.83
2019-01-19T15:08:15.511Z,74.28
2019-01-19T15:11:01.753Z,74.70
2019-01-19T15:13:47.907Z,75.09
2019-01-19T15:17:00.139Z,75.42
2019-01-19T15:19:56.903Z,75.79
2019-01-19T15:22:54.634Z,76.19
2019-01-19T15:25:54.200Z,76.47
2019-01-19T15:28:46.536Z,76.76
2019-01-19T15:31:35.712Z,76.98
2019-01-19T15:34:29.141Z,77.17
2019-01-19T15:37:24.561Z,77.37
2019-01-19T15:40:01.625Z,77.70
2019-01-19T15:42:47.482Z,77.99
2019-01-19T15:45:33.388Z,78.36
2019-01-19T15:48:19.177Z,78.69
2019-01-19T15:51:11.437Z,78.96
2019-01-19T15:54:16.081Z,79.14
2019-01-19T15:57:17.590Z,79.23
2019-01-19T16:00:11.140Z,79.19
2019-01-19T16:02:45.760Z,79.19
2019-01-19T16:05:31.188Z,79.26
2019-01-19T16:08:26.484Z,79.38
2019-01-19T16:11:24.337Z,79.39
2019-01-19T16:14:18.015Z,79.44
2019-01-19T16:17:00.535Z,79.60
2019-01-19T16:19:50.034Z,79.86
2019-01-19T16:22:33.267Z,80.14
2019-01-19T16:25:34.447Z,80.32
2019-01-19T16:28:17.416Z,80.55
2019-01-19T16:31:19.568Z,80.66
2019-01-19T16:34:02.412Z,80.76
2019-01-19T16:36:39.292Z,80.74
2019-01-19T16:39:28.167Z,80.78
2019-01-19T16:42:11.580Z,80.84
2019-01-19T16:45:26.947Z,80.80
2019-01-19T16:48:04.018Z,80.73
2019-01-19T16:50:44.950Z,80.58
2019-01-19T16:53:34.245Z,80.62
2019-01-19T16:56:33.808Z,80.70
2019-01-19T16:59:39.666Z,80.80
2019-01-19T17:02:19.457Z,80.78
2019-01-19T17:04:56.373Z,80.66
2019-01-19T17:08:06.906Z,80.55
2019-01-19T17:11:03.610Z,80.50
2019-01-19T17:13:52.837Z,80.41
2019-01-19T17:16:57.531Z,80.38
2019-01-19T17:19:34.493Z,80.42
2019-01-19T17:22:19.453Z,80.52
2019-01-19T17:25:05.461Z,80.75
2019-01-19T17:28:14.667Z,80.91
2019-01-19T17:31:12.976Z,80.95
2019-01-19T17:34:05.294Z,81.06
2019-01-19T17:36:54.504Z,81.25
2019-01-19T17:39:40.593Z,81.48
2019-01-19T17:42:37.845Z,81.86
2019-01-19T17:45:26.894Z,82.03
2019-01-19T17:48:12.902Z,82.08
2019-01-19T17:51:12.786Z,82.28
2019-01-19T17:53:55.712Z,82.42
2019-01-19T17:56:41.795Z,82.29
2019-01-19T17:59:24.276Z,82.22
2019-01-19T18:02:27.596Z,82.35
2019-01-19T18:05:20.890Z,82.54
2019-01-19T18:08:22.186Z,82.62
2019-01-19T18:11:02.166Z,82.76
2019-01-19T18:13:58.593Z,82.83
2019-01-19T18:17:10.769Z,83.03
2019-01-19T18:19:56.592Z,83.19
2019-01-19T18:23:01.217Z,83.16
2019-01-19T18:26:18.244Z,83.27
2019-01-19T18:29:02.026Z,83.35
2019-01-19T18:31:54.370Z,83.34
2019-01-19T18:34:43.045Z,83.42
2019-01-19T18:37:36.669Z,83.56
2019-01-19T18:40:33.658Z,83.71
2019-01-19T18:43:35.973Z,83.87
2019-01-19T18:46:32.866Z,84.07
2019-01-19T18:49:18.740Z,84.24
2019-01-19T18:52:13.476Z,84.29
2019-01-19T18:55:01.832Z,84.40
2019-01-19T18:58:02.751Z,84.38
2019-01-19T19:00:48.598Z,84.44
2019-01-19T19:03:45.361Z,84.49
2019-01-19T19:06:41.551Z,84.63
2019-01-19T19:09:36.819Z,84.70
2019-01-19T19:12:35.371Z,84.82
2019-01-19T19:15:27.090Z,84.94
2019-01-19T19:18:07.132Z,85.04
2019-01-19T19:20:57.816Z,85.25
2019-01-19T19:24:00.808Z,85.47
2019-01-19T19:26:52.788Z,85.60
2019-01-19T19:29:45.016Z,85.72
2019-01-19T19:32:43.162Z,85.86
2019-01-19T19:35:38.691Z,85.90
2019-01-19T19:38:50.440Z,85.89
2019-01-19T19:41:59.175Z,85.91
2019-01-19T19:44:44.417Z,85.99
2019-01-19T19:47:39.734Z,86.21
2019-01-19T19:50:39.955Z,86.31
2019-01-19T19:53:09.642Z,86.34
2019-01-19T19:55:37.577Z,86.30
2019-01-19T19:58:07.170Z,86.52
2019-01-19T20:00:36.778Z,86.85
2019-01-19T20:03:06.736Z,86.96
2019-01-19T20:05:36.329Z,87.03
2019-01-19T20:08:05.946Z,87.11
2019-01-19T20:10:35.473Z,87.28
2019-01-19T20:13:05.200Z,87.46
2019-01-19T20:15:34.739Z,87.57
2019-01-19T20:18:04.404Z,87.67
2019-01-19T20:20:33.924Z,87.78
2019-01-19T20:23:03.484Z,87.73
2019-01-19T20:25:33.016Z,87.75
2019-01-19T20:28:02.540Z,87.79
2019-01-19T20:30:32.217Z,87.88
2019-01-19T20:33:01.734Z,87.97
2019-01-19T20:35:31.251Z,88.02
2019-01-19T20:38:00.788Z,88.19
2019-01-19T20:40:30.305Z,88.47
2019-01-19T20:42:59.832Z,88.54
2019-01-19T20:45:29.387Z,88.62
2019-01-19T20:47:58.904Z,88.72
2019-01-19T20:50:28.430Z,88.75
2019-01-19T20:52:57.970Z,88.84
2019-01-19T20:55:27.491Z,88.96
2019-01-19T20:57:57.095Z,89.11
2019-01-19T21:00:26.742Z,89.28
2019-01-19T21:02:56.277Z,89.27
2019-01-19T21:05:25.802Z,89.25
2019-01-19T21:07:55.385Z,89.23
2019-01-19T21:10:31.552Z,89.21
2019-01-19T21:12:56.171Z,89.14
2019-01-19T21:15:25.719Z,89.14
2019-01-19T21:17:55.820Z,89.14
2019-01-19T21:20:25.540Z,89.19
2019-01-19T21:22:55.086Z,89.35
2019-01-19T21:25:24.620Z,89.45
2019-01-19T21:27:54.139Z,89.57
2019-01-19T21:30:23.682Z,89.66
2019-01-19T21:32:53.209Z,89.63
2019-01-19T21:35:22.734Z,89.63
2019-01-19T21:37:52.498Z,89.63
2019-01-19T21:40:22.021Z,89.69
2019-01-19T21:42:51.575Z,89.75
2019-01-19T21:45:22.597Z,89.77
2019-01-19T21:47:52.127Z,89.84
2019-01-19T21:50:21.665Z,89.99
2019-01-19T21:52:51.219Z,90.04
2019-01-19T21:55:20.798Z,90.20
2019-01-19T21:57:50.332Z,90.31
2019-01-19T22:00:22.025Z,90.37
2019-01-19T22:02:51.556Z,90.38
2019-01-19T22:05:21.265Z,90.38
2019-01-19T22:07:50.805Z,90.48
2019-01-19T22:10:23.097Z,90.71
2019-01-19T22:12:52.620Z,90.89
2019-01-19T22:15:22.233Z,91.00
2019-01-19T22:17:51.759Z,91.05
2019-01-19T22:20:21.278Z,91.02
2019-01-19T22:22:50.911Z,90.96
2019-01-19T22:25:20.431Z,90.93
2019-01-19T22:27:50.219Z,90.90
2019-01-19T22:30:26.484Z,91.02
2019-01-19T22:32:56.281Z,91.04
2019-01-19T22:35:27.705Z,91.10
2019-01-19T22:37:57.674Z,91.13
2019-01-19T22:40:27.194Z,91.22
2019-01-19T22:42:56.951Z,91.25
2019-01-19T22:45:26.499Z,91.33
2019-01-19T22:47:56.029Z,91.45
2019-01-19T22:50:25.557Z,91.56
2019-01-19T22:52:55.219Z,91.69
2019-01-19T22:55:24.746Z,91.73
2019-01-19T22:57:54.443Z,91.85
2019-01-19T23:00:59.777Z,91.97
2019-01-19T23:03:31.920Z,92.10
2019-01-19T23:06:01.499Z,91.94
2019-01-19T23:08:31.066Z,91.92
2019-01-19T23:11:01.318Z,91.92
2019-01-19T23:13:30.993Z,92.00
2019-01-19T23:16:00.625Z,92.03
2019-01-19T23:18:30.142Z,92.15
2019-01-19T23:20:59.666Z,92.17
2019-01-19T23:23:29.564Z,92.21
2019-01-19T23:26:00.725Z,92.22
2019-01-19T23:28:30.244Z,92.18
2019-01-19T23:31:00.000Z,92.21
2019-01-19T23:33:29.522Z,92.38
2019-01-19T23:35:59.040Z,92.59
2019-01-19T23:38:28.990Z,92.70
2019-01-19T23:40:58.520Z,92.70
2019-01-19T23:43:28.053Z,92.72
2019-01-19T23:45:57.589Z,92.78
2019-01-19T23:48:27.146Z,92.80
2019-01-19T23:50:56.664Z,92.93
2019-01-19T23:53:26.229Z,93.01
2019-01-19T23:55:55.778Z,93.04
2019-01-19T23:58:25.317Z,93.17
